sensor_id;sensor_type;location;lat;lon;timestamp;pressure;altitude;pressure_sealevel;temperature;humidity
68199;BME280;55021;51.554;17.044;2023-03-18T00:12:06;100511.47;;;6.26;51.01
68199;BME280;55021;51.554;17.044;2023-03-18T00:27:08;100498.03;;;6.04;51.33
68199;BME280;55021;51.554;17.044;2023-03-18T00:42:10;100518.09;;;6.22;51.05
68199;BME280;55021;51.554;17.044;2023-03-18T00:57:13;100489.19;;;5.82;52.28
68199;BME280;55021;51.554;17.044;2023-03-18T01:12:15;100511.47;;;5.82;52.62
68199;BME280;55021;51.554;17.044;2023-03-18T01:27:18;100497.34;;;5.47;52.53
68199;BME280;55021;51.554;17.044;2023-03-18T01:42:20;100514.94;;;5.05;53.38
68199;BME280;55021;51.554;17.044;2023-03-18T01:57:23;100501.94;;;5.23;54.67
68199;BME280;55021;51.554;17.044;2023-03-18T02:12:28;100479.56;;;5.00;54.41
68199;BME280;55021;51.554;17.044;2023-03-18T02:27:33;100474.59;;;5.06;54.03
68199;BME280;55021;51.554;17.044;2023-03-18T02:42:36;100494.53;;;5.37;53.38
68199;BME280;55021;51.554;17.044;2023-03-18T02:57:40;100489.78;;;5.30;53.68
68199;BME280;55021;51.554;17.044;2023-03-18T03:12:42;100476.59;;;5.71;52.76
68199;BME280;55021;51.554;17.044;2023-03-18T03:27:45;100477.66;;;6.13;51.40
68199;BME280;55021;51.554;17.044;2023-03-18T03:42:48;100479.19;;;6.38;50.82
68199;BME280;55021;51.554;17.044;2023-03-18T03:57:50;100463.19;;;6.47;49.31
68199;BME280;55021;51.554;17.044;2023-03-18T04:12:53;100479.78;;;6.52;49.45
68199;BME280;55021;51.554;17.044;2023-03-18T04:27:55;100500.19;;;6.75;48.72
68199;BME280;55021;51.554;17.044;2023-03-18T04:42:58;100479.72;;;6.63;48.25
68199;BME280;55021;51.554;17.044;2023-03-18T04:58:01;100474.72;;;6.59;48.43
68199;BME280;55021;51.554;17.044;2023-03-18T05:13:03;100482.91;;;6.89;48.14
68199;BME280;55021;51.554;17.044;2023-03-18T05:28:05;100501.25;;;6.63;49.15
68199;BME280;55021;51.554;17.044;2023-03-18T05:43:08;100493.97;;;7.16;47.44
68199;BME280;55021;51.554;17.044;2023-03-18T05:58:10;100494.88;;;7.47;46.74
68199;BME280;55021;51.554;17.044;2023-03-18T06:13:12;100504.72;;;7.58;46.78
68199;BME280;55021;51.554;17.044;2023-03-18T06:28:15;100504.31;;;8.51;45.85
68199;BME280;55021;51.554;17.044;2023-03-18T06:43:17;100495.41;;;8.99;45.15
68199;BME280;55021;51.554;17.044;2023-03-18T06:58:20;100485.16;;;9.21;44.01
68199;BME280;55021;51.554;17.044;2023-03-18T07:13:22;100497.34;;;9.91;43.44
68199;BME280;55021;51.554;17.044;2023-03-18T07:28:25;100501.31;;;10.51;42.35
68199;BME280;55021;51.554;17.044;2023-03-18T07:43:28;100487.25;;;10.65;41.42
68199;BME280;55021;51.554;17.044;2023-03-18T07:58:30;100520.31;;;11.30;39.81
68199;BME280;55021;51.554;17.044;2023-03-18T08:13:33;100544.13;;;11.44;40.77
68199;BME280;55021;51.554;17.044;2023-03-18T08:28:37;100531.25;;;11.97;39.98
68199;BME280;55021;51.554;17.044;2023-03-18T08:43:39;100498.38;;;12.26;38.63
68199;BME280;55021;51.554;17.044;2023-03-18T08:58:42;100483.63;;;13.35;37.42
68199;BME280;55021;51.554;17.044;2023-03-18T09:13:44;100524.88;;;13.79;34.66
68199;BME280;55021;51.554;17.044;2023-03-18T09:28:47;100512.13;;;13.79;34.07
68199;BME280;55021;51.554;17.044;2023-03-18T09:44:02;100526.22;;;13.67;34.33
68199;BME280;55021;51.554;17.044;2023-03-18T09:59:15;100454.75;;;13.18;34.30
68199;BME280;55021;51.554;17.044;2023-03-18T10:14:34;100524.78;;;14.11;34.05
68199;BME280;55021;51.554;17.044;2023-03-18T10:29:43;100516.53;;;14.97;32.17
68199;BME280;55021;51.554;17.044;2023-03-18T10:44:49;100509.06;;;15.13;33.14
68199;BME280;55021;51.554;17.044;2023-03-18T10:59:52;100507.31;;;15.21;32.02
68199;BME280;55021;51.554;17.044;2023-03-18T11:14:55;100498.84;;;14.93;32.83
68199;BME280;55021;51.554;17.044;2023-03-18T11:29:59;100483.22;;;15.47;31.91
68199;BME280;55021;51.554;17.044;2023-03-18T11:45:16;100461.66;;;15.74;31.78
68199;BME280;55021;51.554;17.044;2023-03-18T12:00:28;100465.63;;;16.66;30.43
68199;BME280;55021;51.554;17.044;2023-03-18T12:15:41;100450.16;;;17.37;30.86
68199;BME280;55021;51.554;17.044;2023-03-18T12:30:58;100453.91;;;17.36;30.05
68199;BME280;55021;51.554;17.044;2023-03-18T12:46:09;100460.09;;;17.44;30.01
68199;BME280;55021;51.554;17.044;2023-03-18T13:01:17;100456.97;;;17.47;30.16
68199;BME280;55021;51.554;17.044;2023-03-18T13:16:22;100464.88;;;17.91;29.73
68199;BME280;55021;51.554;17.044;2023-03-18T13:31:35;100461.75;;;18.01;29.86
68199;BME280;55021;51.554;17.044;2023-03-18T13:46:53;100460.50;;;17.41;30.01
68199;BME280;55021;51.554;17.044;2023-03-18T14:01:58;100412.66;;;17.65;29.62
68199;BME280;55021;51.554;17.044;2023-03-18T14:17:43;100465.59;;;17.79;30.49
68199;BME280;55021;51.554;17.044;2023-03-18T14:32:55;100438.53;;;17.90;31.18
68199;BME280;55021;51.554;17.044;2023-03-18T14:47:58;100424.91;;;17.69;29.97
68199;BME280;55021;51.554;17.044;2023-03-18T15:03:07;100443.22;;;17.41;31.18
68199;BME280;55021;51.554;17.044;2023-03-18T15:18:23;100442.78;;;17.37;32.00
68199;BME280;55021;51.554;17.044;2023-03-18T15:33:33;100394.31;;;16.61;33.57
68199;BME280;55021;51.554;17.044;2023-03-18T15:48:38;100433.69;;;15.58;36.38
68199;BME280;55021;51.554;17.044;2023-03-18T16:03:43;100453.53;;;15.14;38.90
68199;BME280;55021;51.554;17.044;2023-03-18T16:18:46;100458.16;;;14.69;40.43
68199;BME280;55021;51.554;17.044;2023-03-18T16:33:48;100472.69;;;14.22;40.46
68199;BME280;55021;51.554;17.044;2023-03-18T16:48:51;100468.06;;;13.84;40.66
68199;BME280;55021;51.554;17.044;2023-03-18T17:03:53;100475.81;;;13.16;41.07
68199;BME280;55021;51.554;17.044;2023-03-18T17:18:56;100489.03;;;12.78;42.39
68199;BME280;55021;51.554;17.044;2023-03-18T17:33:59;100489.78;;;12.39;43.06
68199;BME280;55021;51.554;17.044;2023-03-18T17:49:01;100510.59;;;12.30;43.62
68199;BME280;55021;51.554;17.044;2023-03-18T18:04:03;100509.84;;;12.12;45.68
68199;BME280;55021;51.554;17.044;2023-03-18T18:19:07;100490.22;;;11.92;44.80
68199;BME280;55021;51.554;17.044;2023-03-18T18:34:10;100528.69;;;11.62;45.40
68199;BME280;55021;51.554;17.044;2023-03-18T18:49:17;100506.88;;;11.46;46.03
68199;BME280;55021;51.554;17.044;2023-03-18T19:04:20;100532.38;;;11.18;48.06
68199;BME280;55021;51.554;17.044;2023-03-18T19:19:27;100530.00;;;10.79;49.16
68199;BME280;55021;51.554;17.044;2023-03-18T19:34:30;100519.81;;;9.92;53.49
68199;BME280;55021;51.554;17.044;2023-03-18T19:49:33;100541.84;;;9.87;52.63
68199;BME280;55021;51.554;17.044;2023-03-18T20:04:35;100545.97;;;9.16;56.31
68199;BME280;55021;51.554;17.044;2023-03-18T20:19:38;100539.94;;;8.45;57.83
68199;BME280;55021;51.554;17.044;2023-03-18T20:34:40;100537.50;;;8.33;57.75
68199;BME280;55021;51.554;17.044;2023-03-18T20:49:42;100530.81;;;8.27;58.07
68199;BME280;55021;51.554;17.044;2023-03-18T21:04:45;100529.47;;;8.12;58.83
68199;BME280;55021;51.554;17.044;2023-03-18T21:19:49;100534.31;;;7.78;59.27
68199;BME280;55021;51.554;17.044;2023-03-18T21:34:52;100541.81;;;7.54;61.03
68199;BME280;55021;51.554;17.044;2023-03-18T21:49:55;100531.97;;;7.43;59.84
68199;BME280;55021;51.554;17.044;2023-03-18T22:04:59;100534.53;;;7.24;61.27
68199;BME280;55021;51.554;17.044;2023-03-18T22:20:02;100479.16;;;7.01;59.77
68199;BME280;55021;51.554;17.044;2023-03-18T22:35:11;100528.66;;;7.10;61.93
68199;BME280;55021;51.554;17.044;2023-03-18T22:50:14;100549.44;;;6.44;62.85
68199;BME280;55021;51.554;17.044;2023-03-18T23:05:18;100565.19;;;6.38;63.47
68199;BME280;55021;51.554;17.044;2023-03-18T23:20:20;100553.47;;;5.94;64.61
68199;BME280;55021;51.554;17.044;2023-03-18T23:35:23;100565.69;;;6.20;64.20
68199;BME280;55021;51.554;17.044;2023-03-18T23:50:25;100569.22;;;5.99;64.84
